Time;durP1;ratioP1;P1;durP2;ratioP2;P2;SDS_P1;SDS_P2;PMS_P1;PMS_P2;Temp;Humidity;BMP_temperature;BMP_pressure;BME280_temperature;BME280_humidity;BME280_pressure;Samples;Min_cycle;Max_cycle;Signal;HPM_P1;HPM_P2
2021/12/13 00:01:47;;;;;;;83.95;41.90;;;6.40;99.90;;;;;;5088260;28;20384;-85
2021/12/13 00:04:31;;;;;;;86.93;42.45;;;6.40;99.90;;;;;;5069726;28;20419;-85
2021/12/13 00:07:04;;;;;;;69.47;39.08;;;6.40;99.90;;;;;;5058487;28;20376;-85
2021/12/13 00:09:33;;;;;;;89.43;42.53;;;6.40;99.90;;;;;;5105628;28;20367;-84
2021/12/13 00:12:03;;;;;;;89.55;43.28;;;6.40;99.90;;;;;;5060659;28;20382;-85
2021/12/13 00:14:37;;;;;;;78.53;41.20;;;6.40;99.90;;;;;;5067178;28;20378;-85
2021/12/13 00:17:13;;;;;;;83.13;41.55;;;6.50;99.90;;;;;;5087099;28;20387;-85
2021/12/13 00:19:44;;;;;;;88.55;40.55;;;6.50;99.90;;;;;;5076656;28;20394;-85
2021/12/13 00:22:19;;;;;;;84.40;42.20;;;6.50;99.90;;;;;;5092486;28;20399;-85
2021/12/13 00:24:46;;;;;;;67.18;38.20;;;6.50;99.90;;;;;;5082550;28;20874;-82
2021/12/13 00:27:27;;;;;;;84.20;42.30;;;6.50;99.90;;;;;;5072835;28;20471;-84
2021/12/13 00:29:59;;;;;;;88.45;42.65;;;6.50;99.90;;;;;;5072322;28;20385;-85
2021/12/13 00:32:46;;;;;;;83.72;42.30;;;6.50;99.90;;;;;;5064593;28;20723;-85
2021/12/13 00:35:20;;;;;;;88.37;43.30;;;6.50;99.90;;;;;;5086731;28;20386;-85
2021/12/13 00:37:51;;;;;;;73.13;40.10;;;6.40;99.90;;;;;;5036811;28;21014;-85
2021/12/13 00:40:22;;;;;;;74.57;39.53;;;6.50;99.90;;;;;;5071335;28;20381;-85
2021/12/13 00:43:04;;;;;;;74.78;39.30;;;6.60;99.90;;;;;;5086557;28;20411;-85
2021/12/13 00:45:34;;;;;;;62.47;35.67;;;6.60;99.90;;;;;;5093648;28;20390;-85
2021/12/13 00:48:03;;;;;;;81.85;39.95;;;6.60;99.90;;;;;;5100527;28;20416;-85
2021/12/13 00:50:49;;;;;;;83.10;40.83;;;6.60;99.90;;;;;;5072756;28;20479;-85
2021/12/13 00:53:21;;;;;;;67.13;36.75;;;6.60;99.90;;;;;;5073421;28;20380;-85
2021/12/13 00:55:49;;;;;;;74.72;39.28;;;6.60;99.90;;;;;;5090862;28;20441;-85
2021/12/13 00:58:18;;;;;;;57.63;34.75;;;6.70;99.90;;;;;;5091188;28;20471;-85
2021/12/13 01:00:52;;;;;;;66.67;37.20;;;6.70;99.90;;;;;;5106260;28;20394;-85
2021/12/13 01:03:22;;;;;;;69.67;37.67;;;6.70;99.90;;;;;;5093302;28;20403;-85
2021/12/13 01:06:19;;;;;;;66.70;35.27;;;6.80;99.90;;;;;;5092900;28;20497;-85
2021/12/13 01:09:20;;;;;;;62.13;34.80;;;6.80;99.90;;;;;;5111505;28;20375;-86
2021/12/13 01:11:51;;;;;;;66.75;37.00;;;6.70;99.90;;;;;;5065689;28;20383;-85
2021/12/13 01:14:41;;;;;;;79.05;39.25;;;6.80;99.90;;;;;;5093077;28;20375;-85
2021/12/13 01:17:28;;;;;;;71.88;37.80;;;6.80;99.90;;;;;;5111001;28;20379;-85
2021/12/13 01:20:43;;;;;;;58.70;34.40;;;6.80;99.90;;;;;;5111164;28;20386;-85
2021/12/13 01:23:17;;;;;;;72.32;38.72;;;6.70;99.90;;;;;;5071857;28;20407;-85
2021/12/13 01:26:00;;;;;;;76.97;39.47;;;6.70;99.90;;;;;;5110790;28;20375;-85
2021/12/13 01:28:37;;;;;;;65.90;36.65;;;6.70;99.90;;;;;;5092698;28;20386;-85
2021/12/13 01:31:09;;;;;;;64.80;37.17;;;6.70;99.90;;;;;;5111476;28;20406;-85
2021/12/13 01:33:39;;;;;;;71.50;38.33;;;6.70;99.90;;;;;;5092261;28;20378;-85
2021/12/13 01:36:07;;;;;;;64.40;37.42;;;6.80;99.90;;;;;;5104628;28;20449;-85
2021/12/13 01:38:37;;;;;;;57.08;34.15;;;6.80;99.90;;;;;;5090503;28;20968;-85
2021/12/13 01:41:10;;;;;;;73.13;37.17;;;6.80;99.90;;;;;;5071811;28;20429;-85
2021/12/13 01:43:40;;;;;;;75.90;37.70;;;6.80;99.90;;;;;;5064896;28;20513;-85
2021/12/13 01:46:06;;;;;;;62.17;35.67;;;6.80;99.90;;;;;;5070859;28;20419;-85
2021/12/13 01:48:38;;;;;;;64.83;34.83;;;6.80;99.90;;;;;;5090694;28;20394;-85
2021/12/13 01:51:10;;;;;;;87.70;39.40;;;6.80;99.90;;;;;;5092139;28;20394;-85
2021/12/13 01:53:54;;;;;;;69.85;37.15;;;6.80;99.90;;;;;;5097115;28;20396;-85
2021/12/13 01:56:45;;;;;;;71.38;37.85;;;6.80;99.90;;;;;;5058570;28;20395;-85
2021/12/13 02:02:13;;;;;;;84.20;38.77;;;6.80;99.90;;;;;;5105841;28;20474;-85
2021/12/13 02:04:40;;;;;;;82.45;40.42;;;6.80;99.90;;;;;;5105426;28;20396;-85
2021/12/13 02:07:07;;;;;;;82.53;40.58;;;6.70;99.90;;;;;;5071929;28;20405;-85
2021/12/13 02:09:37;;;;;;;76.80;36.43;;;6.60;99.90;;;;;;5090364;28;20383;-85
2021/12/13 02:12:07;;;;;;;81.63;37.38;;;6.70;99.90;;;;;;5089680;28;20369;-85
2021/12/13 02:14:34;;;;;;;60.78;35.47;;;6.70;99.90;;;;;;5066707;28;20385;-85
2021/12/13 02:17:10;;;;;;;80.15;38.92;;;6.80;99.90;;;;;;5075658;28;20374;-85
2021/12/13 02:19:47;;;;;;;66.18;35.95;;;6.70;99.90;;;;;;5071537;28;20382;-85
2021/12/13 02:22:31;;;;;;;65.25;35.53;;;6.80;99.90;;;;;;5071168;28;20457;-85
2021/12/13 02:25:04;;;;;;;68.10;37.17;;;6.80;99.90;;;;;;5071315;28;20379;-85
2021/12/13 02:27:33;;;;;;;64.90;35.75;;;6.80;99.90;;;;;;5071369;28;20373;-85
2021/12/13 02:30:07;;;;;;;68.87;37.17;;;6.80;99.90;;;;;;5069631;28;20391;-82
2021/12/13 02:32:35;;;;;;;82.28;38.65;;;6.80;99.90;;;;;;5083214;28;20870;-85
2021/12/13 02:35:03;;;;;;;72.20;37.17;;;6.80;99.90;;;;;;5051082;28;20382;-83
2021/12/13 02:37:29;;;;;;;62.40;34.88;;;6.80;99.90;;;;;;5077837;28;20846;-83
2021/12/13 02:39:58;;;;;;;75.13;37.47;;;6.80;99.90;;;;;;5088457;28;20391;-85
2021/12/13 02:42:27;;;;;;;97.78;40.40;;;6.80;99.90;;;;;;5051241;28;20447;-85
2021/12/13 02:45:00;;;;;;;109.47;42.17;;;6.80;99.90;;;;;;5068900;28;20920;-83
2021/12/13 02:47:34;;;;;;;107.38;42.38;;;6.70;99.90;;;;;;5071038;28;20426;-84
2021/12/13 02:50:01;;;;;;;133.70;45.10;;;6.70;99.90;;;;;;5070116;28;20380;-84
2021/12/13 02:52:27;;;;;;;108.82;43.20;;;6.70;99.90;;;;;;5070325;28;20866;-84
2021/12/13 02:55:00;;;;;;;111.90;41.78;;;6.70;99.90;;;;;;5053004;28;20405;-84
2021/12/13 02:57:38;;;;;;;97.13;40.03;;;6.70;99.90;;;;;;5050402;28;20457;-83
2021/12/13 03:00:18;;;;;;;131.05;43.90;;;6.70;99.90;;;;;;5068991;28;20382;-84
2021/12/13 03:02:46;;;;;;;126.05;44.30;;;6.70;99.90;;;;;;5068523;28;20406;-83
2021/12/13 03:05:31;;;;;;;126.53;45.15;;;6.70;99.90;;;;;;5088814;28;20376;-83
2021/12/13 03:08:06;;;;;;;193.90;49.03;;;6.70;99.90;;;;;;5070605;28;20389;-84
2021/12/13 03:10:36;;;;;;;146.57;46.70;;;6.70;99.90;;;;;;5056045;28;20390;-84
2021/12/13 03:13:02;;;;;;;188.52;50.38;;;6.70;99.90;;;;;;5051712;28;20409;-84
2021/12/13 03:15:32;;;;;;;186.60;51.17;;;6.70;99.90;;;;;;5079603;28;20439;-85
2021/12/13 03:18:15;;;;;;;128.60;45.15;;;6.70;99.90;;;;;;5050802;28;20374;-84
2021/12/13 03:21:01;;;;;;;177.05;50.13;;;6.70;99.90;;;;;;5065635;28;20388;-83
2021/12/13 03:23:51;;;;;;;182.20;50.67;;;6.70;99.90;;;;;;5089109;28;20396;-84
2021/12/13 03:26:49;;;;;;;174.43;49.70;;;6.70;99.90;;;;;;5088175;28;20416;-84
2021/12/13 03:29:28;;;;;;;195.20;52.73;;;6.70;99.90;;;;;;5088721;28;20938;-83
2021/12/13 03:31:57;;;;;;;204.32;52.30;;;6.70;99.90;;;;;;5062241;28;20468;-83
2021/12/13 03:34:31;;;;;;;218.35;55.60;;;6.70;99.90;;;;;;5050567;28;20389;-83
2021/12/13 03:37:15;;;;;;;197.77;55.25;;;6.60;99.90;;;;;;5068326;28;20465;-83
2021/12/13 03:40:04;;;;;;;224.98;59.35;;;6.60;99.90;;;;;;5050186;28;20563;-83
2021/12/13 03:42:37;;;;;;;193.43;55.78;;;6.50;99.90;;;;;;5049622;28;20741;-83
2021/12/13 03:45:18;;;;;;;314.35;66.35;;;6.60;99.90;;;;;;5068257;28;20382;-83
2021/12/13 03:47:49;;;;;;;159.25;52.05;;;6.50;99.90;;;;;;5068082;28;20398;-83
2021/12/13 03:50:23;;;;;;;274.25;61.72;;;6.50;99.90;;;;;;5068863;28;20389;-83
2021/12/13 03:52:53;;;;;;;280.05;61.67;;;6.60;99.90;;;;;;5068006;28;20386;-83
2021/12/13 03:55:21;;;;;;;159.73;50.95;;;6.60;99.90;;;;;;5069790;28;20367;-83
2021/12/13 03:57:51;;;;;;;264.17;59.72;;;6.60;99.90;;;;;;5054062;28;20378;-83
2021/12/13 04:00:21;;;;;;;228.05;55.45;;;6.60;99.90;;;;;;5054336;28;20443;-83
2021/12/13 04:02:47;;;;;;;252.30;57.40;;;6.60;99.90;;;;;;5071953;28;20493;-84
2021/12/13 04:05:26;;;;;;;257.17;58.70;;;6.70;99.90;;;;;;5054074;28;20831;-84
2021/12/13 04:07:59;;;;;;;251.88;58.35;;;6.60;99.90;;;;;;5057155;28;20392;-84
2021/12/13 04:10:35;;;;;;;253.57;56.83;;;6.60;99.90;;;;;;5057724;28;20468;-83
2021/12/13 04:13:09;;;;;;;260.65;56.22;;;6.60;99.90;;;;;;5091806;28;20418;-84
2021/12/13 04:16:01;;;;;;;316.65;59.55;;;6.60;99.90;;;;;;5089966;28;20478;-83
2021/12/13 04:21:26;;;;;;;181.23;50.58;;;6.60;99.90;;;;;;5071145;28;20876;-84
2021/12/13 04:24:01;;;;;;;201.27;48.95;;;6.60;99.90;;;;;;5080046;28;20495;-84
2021/12/13 04:26:28;;;;;;;228.45;53.83;;;6.60;99.90;;;;;;5062717;28;20455;-83
2021/12/13 04:28:57;;;;;;;200.83;49.00;;;6.60;99.90;;;;;;5069705;28;20434;-84
2021/12/13 04:31:31;;;;;;;142.80;43.30;;;6.70;99.90;;;;;;5070730;28;20479;-83
2021/12/13 04:34:00;;;;;;;139.13;40.92;;;6.70;99.90;;;;;;5053271;28;20872;-83
2021/12/13 04:36:39;;;;;;;215.80;48.63;;;6.70;99.90;;;;;;5071497;28;20382;-83
2021/12/13 04:39:29;;;;;;;274.05;51.67;;;6.70;99.90;;;;;;5053678;28;20375;-84
2021/12/13 04:42:00;;;;;;;208.65;48.83;;;6.60;99.90;;;;;;5056401;28;20456;-83
2021/12/13 04:44:37;;;;;;;293.20;54.03;;;6.60;99.90;;;;;;5063478;28;20401;-84
2021/12/13 04:47:14;;;;;;;200.00;48.65;;;6.50;99.90;;;;;;5073387;28;20514;-83
2021/12/13 04:49:46;;;;;;;204.80;46.70;;;6.40;99.90;;;;;;5091706;28;20463;-83
2021/12/13 04:52:16;;;;;;;268.83;51.38;;;6.50;99.90;;;;;;5073295;28;20397;-84
2021/12/13 04:54:48;;;;;;;136.48;41.33;;;6.50;99.90;;;;;;5073060;28;20393;-84
2021/12/13 04:57:15;;;;;;;111.43;34.10;;;6.60;99.90;;;;;;5073209;28;20724;-84
2021/12/13 04:59:45;;;;;;;125.28;38.50;;;6.70;99.90;;;;;;5091344;28;20384;-83
2021/12/13 05:02:11;;;;;;;143.55;42.88;;;6.70;99.90;;;;;;5091346;28;20464;-84
2021/12/13 05:04:37;;;;;;;180.25;43.92;;;6.80;99.90;;;;;;5090753;28;20396;-84
2021/12/13 05:07:05;;;;;;;134.45;35.97;;;6.80;99.90;;;;;;5090147;28;20388;-84
2021/12/13 05:09:33;;;;;;;95.13;34.67;;;6.80;99.90;;;;;;5090717;28;20469;-84
2021/12/13 05:12:02;;;;;;;122.72;37.97;;;6.80;99.90;;;;;;5072743;28;20372;-83
2021/12/13 05:14:37;;;;;;;118.63;35.20;;;6.80;99.90;;;;;;5072767;28;21023;-84
2021/12/13 05:17:17;;;;;;;173.40;39.53;;;6.90;99.90;;;;;;5072702;28;20429;-83
2021/12/13 05:20:04;;;;;;;208.15;43.90;;;6.90;99.90;;;;;;5072303;28;20384;-84
2021/12/13 05:22:30;;;;;;;177.18;39.83;;;6.80;99.90;;;;;;5070033;28;20390;-84
2021/12/13 05:25:02;;;;;;;154.52;39.63;;;6.70;99.90;;;;;;5052744;28;20390;-84
2021/12/13 05:27:32;;;;;;;166.93;38.97;;;6.70;99.90;;;;;;5070624;28;20436;-83
2021/12/13 05:30:24;;;;;;;222.85;44.25;;;6.60;99.90;;;;;;5062788;28;20399;-84
2021/12/13 05:32:57;;;;;;;299.88;48.03;;;6.60;99.90;;;;;;5083640;28;20395;-84
2021/12/13 05:35:26;;;;;;;235.07;46.53;;;6.60;99.90;;;;;;5055431;28;20768;-84
2021/12/13 05:38:22;;;;;;;179.48;40.60;;;6.60;99.90;;;;;;5052875;28;20398;-84
2021/12/13 05:40:48;;;;;;;207.43;42.08;;;6.60;99.90;;;;;;5053082;28;20402;-83
2021/12/13 05:43:43;;;;;;;202.73;44.38;;;6.60;99.90;;;;;;5052234;28;20402;-84
2021/12/13 05:46:17;;;;;;;185.73;43.22;;;6.60;99.90;;;;;;5062752;28;20405;-84
2021/12/13 05:49:00;;;;;;;172.10;40.47;;;6.70;99.90;;;;;;5069965;28;20901;-84
2021/12/13 05:51:42;;;;;;;147.88;35.85;;;6.70;99.90;;;;;;5088416;28;20750;-83
2021/12/13 05:54:23;;;;;;;217.02;41.08;;;6.70;99.90;;;;;;5071780;28;20398;-83
2021/12/13 05:56:54;;;;;;;203.07;39.38;;;6.70;99.90;;;;;;5084538;28;20483;-85
2021/12/13 05:59:24;;;;;;;168.65;39.05;;;6.80;99.90;;;;;;5071769;28;20430;-83
2021/12/13 06:02:04;;;;;;;226.75;42.75;;;6.80;99.90;;;;;;5058907;28;20382;-84
2021/12/13 06:04:39;;;;;;;223.83;43.10;;;6.80;99.90;;;;;;5069850;28;20406;-83
2021/12/13 06:07:28;;;;;;;246.30;45.72;;;6.80;99.90;;;;;;5070977;28;20381;-84
2021/12/13 06:10:04;;;;;;;175.57;39.58;;;6.70;99.90;;;;;;5055409;28;20373;-84
2021/12/13 06:12:45;;;;;;;182.32;41.00;;;6.80;99.90;;;;;;5061794;28;20389;-84
2021/12/13 06:15:23;;;;;;;115.03;34.83;;;6.80;99.90;;;;;;5107104;28;20386;-84
2021/12/13 06:18:14;;;;;;;125.15;35.88;;;6.80;99.90;;;;;;5084870;28;20376;-84
2021/12/13 06:21:06;;;;;;;138.18;37.22;;;6.90;99.90;;;;;;5088880;28;20372;-84
2021/12/13 06:23:36;;;;;;;89.70;32.17;;;6.90;99.90;;;;;;5070701;28;20408;-84
2021/12/13 06:26:12;;;;;;;71.30;29.48;;;6.90;99.90;;;;;;5089501;28;20463;-84
2021/12/13 06:28:52;;;;;;;113.55;31.67;;;6.90;99.90;;;;;;5089409;28;20372;-84
2021/12/13 06:31:20;;;;;;;107.32;32.10;;;7.00;99.90;;;;;;5106910;28;20369;-84
2021/12/13 06:33:51;;;;;;;98.43;33.55;;;7.00;99.90;;;;;;5073713;28;20397;-84
2021/12/13 06:36:37;;;;;;;215.10;41.40;;;7.00;99.90;;;;;;5071248;28;20380;-84
2021/12/13 06:39:26;;;;;;;118.18;34.22;;;7.00;99.90;;;;;;5088595;28;20494;-84
2021/12/13 06:41:59;;;;;;;83.20;31.77;;;7.00;99.90;;;;;;5069732;28;20392;-84
2021/12/13 06:44:30;;;;;;;115.55;34.45;;;7.00;99.90;;;;;;5054431;28;20396;-84
2021/12/13 06:47:07;;;;;;;78.10;29.92;;;7.00;99.90;;;;;;5070946;28;20372;-84
2021/12/13 06:49:41;;;;;;;67.68;29.15;;;7.00;99.90;;;;;;5070852;28;20454;-84
2021/12/13 06:52:19;;;;;;;64.85;28.73;;;7.10;99.90;;;;;;5088373;28;20369;-83
2021/12/13 06:54:55;;;;;;;63.33;28.58;;;7.10;99.90;;;;;;5070483;28;20393;-84
2021/12/13 06:57:24;;;;;;;86.28;29.00;;;7.10;99.90;;;;;;5089151;28;20372;-84
2021/12/13 07:00:13;;;;;;;87.75;30.48;;;7.20;99.90;;;;;;5070637;28;20925;-84
2021/12/13 07:02:46;;;;;;;76.53;31.20;;;7.20;99.90;;;;;;5070231;28;20376;-84
2021/12/13 07:05:23;;;;;;;63.35;28.42;;;7.20;99.90;;;;;;5071212;28;20387;-84
2021/12/13 07:08:10;;;;;;;65.25;28.02;;;7.20;99.90;;;;;;5070416;28;21024;-84
2021/12/13 07:10:56;;;;;;;73.88;29.75;;;7.20;99.90;;;;;;5088490;28;20381;-84
2021/12/13 07:13:45;;;;;;;99.57;34.40;;;7.20;99.90;;;;;;5070721;28;20399;-84
2021/12/13 07:16:21;;;;;;;94.37;33.67;;;7.30;99.90;;;;;;5070676;28;20853;-84
2021/12/13 07:19:00;;;;;;;118.27;32.40;;;7.30;99.90;;;;;;5088790;28;20738;-84
2021/12/13 07:21:28;;;;;;;84.60;29.73;;;7.30;99.90;;;;;;5070148;28;20396;-85
2021/12/13 07:24:07;;;;;;;75.63;28.70;;;7.30;99.90;;;;;;5069878;28;20400;-84
2021/12/13 07:26:40;;;;;;;121.38;27.90;;;7.30;99.90;;;;;;5088685;28;20376;-84
2021/12/13 07:29:17;;;;;;;64.60;27.77;;;7.30;99.90;;;;;;5070431;28;20383;-84
2021/12/13 07:31:46;;;;;;;58.10;26.13;;;7.30;99.90;;;;;;5087946;28;20371;-84
2021/12/13 07:34:16;;;;;;;80.32;28.20;;;7.30;99.90;;;;;;5070034;28;20387;-84
2021/12/13 07:36:43;;;;;;;64.43;27.58;;;7.30;99.90;;;;;;5070594;28;20376;-84
2021/12/13 07:39:15;;;;;;;77.22;30.52;;;7.30;99.90;;;;;;5069689;28;20401;-84
2021/12/13 07:41:49;;;;;;;88.93;30.88;;;7.30;99.90;;;;;;5069903;28;20424;-83
2021/12/13 07:44:31;;;;;;;66.78;30.25;;;7.40;99.90;;;;;;5088699;28;20429;-83
2021/12/13 07:47:11;;;;;;;70.47;31.08;;;7.40;99.90;;;;;;5089490;28;20788;-84
2021/12/13 07:49:42;;;;;;;100.43;36.17;;;7.40;99.90;;;;;;5088316;28;20376;-84
2021/12/13 07:52:20;;;;;;;102.18;36.15;;;7.40;99.90;;;;;;5088054;28;20380;-84
2021/12/13 07:54:46;;;;;;;99.93;35.75;;;7.40;99.90;;;;;;5087557;28;20395;-84
2021/12/13 07:57:32;;;;;;;104.07;36.17;;;7.40;99.90;;;;;;5083670;28;20380;-84
2021/12/13 08:00:06;;;;;;;101.35;35.50;;;7.40;99.90;;;;;;5053956;28;20950;-84
2021/12/13 08:02:34;;;;;;;98.30;36.67;;;7.40;99.90;;;;;;5071553;28;20387;-84
2021/12/13 08:05:03;;;;;;;137.07;40.92;;;7.40;99.90;;;;;;5066995;28;20396;-83
2021/12/13 08:07:32;;;;;;;114.95;38.92;;;7.40;99.90;;;;;;5068959;28;20384;-84
2021/12/13 08:10:08;;;;;;;136.35;42.28;;;7.40;99.90;;;;;;5069426;28;20471;-83
2021/12/13 08:12:41;;;;;;;122.18;40.25;;;7.40;99.90;;;;;;5068941;28;20420;-83
2021/12/13 08:15:15;;;;;;;108.30;39.00;;;7.40;99.90;;;;;;5087929;28;20391;-83
2021/12/13 08:17:51;;;;;;;85.35;35.05;;;7.50;99.90;;;;;;5065186;28;20467;-83
2021/12/13 08:20:26;;;;;;;101.55;38.33;;;7.50;99.90;;;;;;5052841;28;20876;-84
2021/12/13 08:22:54;;;;;;;108.65;38.58;;;7.50;99.90;;;;;;5049217;28;20456;-83
2021/12/13 08:25:40;;;;;;;100.32;37.08;;;7.50;99.90;;;;;;5047886;28;20455;-84
2021/12/13 08:28:10;;;;;;;75.75;33.88;;;7.60;99.90;;;;;;5085080;28;20875;-84
2021/12/13 08:30:48;;;;;;;114.88;36.80;;;7.60;99.90;;;;;;5087178;28;20377;-83
2021/12/13 08:33:18;;;;;;;75.70;31.75;;;7.70;99.90;;;;;;5087510;28;20364;-83
2021/12/13 08:36:01;;;;;;;58.53;27.50;;;7.70;99.90;;;;;;5069205;28;21059;-84
2021/12/13 08:38:35;;;;;;;82.57;31.50;;;7.70;99.90;;;;;;5069083;28;20962;-82
2021/12/13 08:41:22;;;;;;;75.28;29.48;;;7.70;99.90;;;;;;5086104;28;20380;-82
2021/12/13 08:43:54;;;;;;;81.03;31.30;;;7.80;99.90;;;;;;5070973;28;20544;-83
2021/12/13 08:46:40;;;;;;;48.10;25.55;;;7.80;99.90;;;;;;5090515;28;20380;-83
2021/12/13 08:49:52;;;;;;;50.30;26.20;;;7.90;99.90;;;;;;5071828;28;20399;-81
2021/12/13 08:52:20;;;;;;;62.47;27.52;;;8.00;99.90;;;;;;5089497;28;20437;-82
2021/12/13 08:55:15;;;;;;;71.80;30.48;;;8.00;99.90;;;;;;5090190;28;20531;-82
2021/12/13 08:58:12;;;;;;;62.40;27.90;;;8.10;99.90;;;;;;5062566;28;20381;-81
2021/12/13 09:00:48;;;;;;;58.13;27.33;;;8.10;99.90;;;;;;5070390;28;20393;-81
2021/12/13 09:03:20;;;;;;;49.92;25.67;;;8.10;99.90;;;;;;5088531;28;20408;-82
2021/12/13 09:05:58;;;;;;;66.85;28.77;;;8.20;99.90;;;;;;5078875;28;20443;-81
2021/12/13 09:08:37;;;;;;;70.07;27.83;;;8.10;99.90;;;;;;5084058;28;20379;-81
2021/12/13 09:11:29;;;;;;;63.28;26.75;;;8.20;99.90;;;;;;5083669;28;20400;-82
2021/12/13 09:14:11;;;;;;;58.88;27.20;;;8.30;99.90;;;;;;5070701;28;20461;-82
2021/12/13 09:16:46;;;;;;;53.97;25.27;;;8.30;99.90;;;;;;5070708;28;20827;-81
2021/12/13 09:19:21;;;;;;;65.10;26.83;;;8.30;99.90;;;;;;5072869;28;20743;-82
2021/12/13 09:21:58;;;;;;;51.30;25.08;;;8.30;99.90;;;;;;5090496;28;20387;-82
2021/12/13 09:24:46;;;;;;;62.50;26.83;;;8.30;99.90;;;;;;5059236;28;20409;-81
2021/12/13 09:27:38;;;;;;;63.08;27.60;;;8.40;99.90;;;;;;5052458;28;20397;-81
2021/12/13 09:30:35;;;;;;;53.35;24.85;;;8.40;99.90;;;;;;5083392;28;20418;-82
2021/12/13 09:33:04;;;;;;;45.42;24.23;;;8.50;99.90;;;;;;5090698;28;20529;-82
2021/12/13 09:35:45;;;;;;;48.30;24.17;;;8.60;99.90;;;;;;5072355;28;20462;-81
2021/12/13 09:38:38;;;;;;;59.05;26.52;;;8.60;99.90;;;;;;5090502;28;20372;-82
2021/12/13 09:41:07;;;;;;;49.03;24.47;;;8.70;99.90;;;;;;5086344;28;20390;-82
2021/12/13 09:43:46;;;;;;;62.60;27.37;;;8.70;99.90;;;;;;5069572;28;20509;-82
2021/12/13 09:46:16;;;;;;;52.20;25.00;;;8.70;99.90;;;;;;5051640;28;20781;-82
2021/12/13 09:48:55;;;;;;;55.97;24.83;;;8.70;99.90;;;;;;5052026;28;20439;-82
2021/12/13 09:51:30;;;;;;;44.10;24.00;;;8.80;99.90;;;;;;5069656;28;20494;-82
2021/12/13 09:53:59;;;;;;;46.50;23.80;;;8.90;99.90;;;;;;5051781;28;20482;-82
2021/12/13 09:56:31;;;;;;;35.92;22.15;;;9.00;99.90;;;;;;5051684;28;20892;-82
2021/12/13 09:59:11;;;;;;;37.40;22.23;;;9.00;99.90;;;;;;5073555;28;20399;-82
2021/12/13 10:01:39;;;;;;;57.10;24.63;;;9.10;99.90;;;;;;5068666;28;20424;-82
2021/12/13 10:04:15;;;;;;;44.42;22.80;;;9.10;99.90;;;;;;5083314;28;20400;-83
2021/12/13 10:06:51;;;;;;;42.92;22.85;;;9.00;99.90;;;;;;5086389;28;20738;-82
2021/12/13 10:09:31;;;;;;;37.75;22.42;;;9.10;99.90;;;;;;5084804;28;20404;-83
2021/12/13 10:11:56;;;;;;;32.13;20.95;;;9.10;99.90;;;;;;5084312;28;20392;-83
2021/12/13 10:14:27;;;;;;;34.10;21.57;;;9.10;99.90;;;;;;5067095;28;20380;-82
2021/12/13 10:16:55;;;;;;;35.63;21.17;;;9.20;99.90;;;;;;5066914;28;20943;-82
2021/12/13 10:19:53;;;;;;;35.30;21.27;;;9.20;99.90;;;;;;5085303;28;20392;-83
2021/12/13 10:22:23;;;;;;;33.75;21.30;;;9.30;99.90;;;;;;5084808;28;20401;-83
2021/12/13 10:24:56;;;;;;;28.77;20.08;;;9.30;99.90;;;;;;5067007;28;20507;-83
2021/12/13 10:27:23;;;;;;;27.88;19.83;;;9.40;99.90;;;;;;5065498;28;20535;-82
2021/12/13 10:29:56;;;;;;;28.30;19.07;;;9.50;99.90;;;;;;5086047;28;20391;-82
2021/12/13 10:32:32;;;;;;;25.02;17.60;;;9.50;99.90;;;;;;5067058;28;20521;-82
2021/12/13 10:35:05;;;;;;;25.57;18.33;;;9.50;99.90;;;;;;5086443;28;20419;-83
2021/12/13 10:37:37;;;;;;;24.10;17.95;;;9.60;99.90;;;;;;5068134;28;20517;-83
2021/12/13 10:40:26;;;;;;;22.13;17.08;;;9.60;99.90;;;;;;5067210;28;20445;-82
2021/12/13 10:43:00;;;;;;;24.17;17.33;;;9.80;99.90;;;;;;5072560;28;20992;-82
2021/12/13 10:45:31;;;;;;;23.88;17.08;;;9.70;99.90;;;;;;5086219;28;20376;-83
2021/12/13 10:48:02;;;;;;;24.17;16.67;;;9.70;99.90;;;;;;5086467;28;20474;-83
2021/12/13 10:50:39;;;;;;;25.80;16.88;;;9.70;99.90;;;;;;5084675;28;20471;-82
2021/12/13 10:53:10;;;;;;;19.13;15.32;;;9.70;99.90;;;;;;5082703;28;21193;-82
2021/12/13 10:55:44;;;;;;;19.83;15.63;;;9.80;99.90;;;;;;5067118;28;20365;-83
2021/12/13 10:58:14;;;;;;;19.75;15.20;;;9.70;99.90;;;;;;5050315;28;20909;-83
2021/12/13 11:00:48;;;;;;;21.55;15.73;;;9.70;99.90;;;;;;5085088;28;20380;-83
2021/12/13 11:03:18;;;;;;;19.33;14.73;;;9.70;99.90;;;;;;5066558;28;20408;-82
2021/12/13 11:05:44;;;;;;;21.15;15.82;;;9.60;99.90;;;;;;5066799;28;20754;-83
2021/12/13 11:08:13;;;;;;;22.65;15.77;;;9.70;99.90;;;;;;5083512;28;20391;-82
2021/12/13 11:10:58;;;;;;;22.35;15.43;;;9.70;99.90;;;;;;5085280;28;20407;-83
2021/12/13 11:13:30;;;;;;;24.25;17.83;;;9.70;99.90;;;;;;5086344;28;20945;-82
2021/12/13 11:16:01;;;;;;;20.10;14.87;;;9.70;99.90;;;;;;5088391;28;20800;-82
2021/12/13 11:18:28;;;;;;;18.13;14.73;;;9.70;99.90;;;;;;5084599;28;20439;-83
2021/12/13 11:21:00;;;;;;;16.70;13.50;;;9.70;99.90;;;;;;5049950;28;20808;-82
2021/12/13 11:23:27;;;;;;;18.60;14.00;;;9.70;99.90;;;;;;5070497;28;20773;-82
2021/12/13 11:25:59;;;;;;;15.98;12.27;;;9.80;99.90;;;;;;5069595;28;20477;-83
2021/12/13 11:28:29;;;;;;;15.50;12.02;;;9.80;99.90;;;;;;5084330;28;20466;-83
2021/12/13 11:30:56;;;;;;;13.63;10.85;;;9.90;99.90;;;;;;5067911;28;20382;-83
2021/12/13 11:33:37;;;;;;;14.23;10.93;;;9.90;99.90;;;;;;5050556;28;20488;-83
2021/12/13 11:36:33;;;;;;;16.45;10.43;;;10.00;99.90;;;;;;5075562;28;20495;-82
2021/12/13 11:39:26;;;;;;;14.68;10.02;;;10.10;99.90;;;;;;5073603;28;20398;-83
2021/12/13 11:42:29;;;;;;;17.23;11.48;;;10.10;99.90;;;;;;5068042;28;20416;-83
2021/12/13 11:45:04;;;;;;;16.73;10.13;;;10.20;99.90;;;;;;5077914;28;20412;-83
2021/12/13 11:47:32;;;;;;;22.83;11.77;;;10.10;99.90;;;;;;5070117;28;20383;-83
2021/12/13 11:50:03;;;;;;;19.77;11.48;;;10.10;99.90;;;;;;5068885;28;20913;-82
2021/12/13 11:52:53;;;;;;;20.50;11.95;;;10.20;99.90;;;;;;5075397;28;20394;-83
2021/12/13 11:55:37;;;;;;;20.65;11.65;;;10.20;99.90;;;;;;5079365;28;20411;-83
2021/12/13 11:58:39;;;;;;;21.80;12.40;;;10.20;99.90;;;;;;5082595;28;20422;-84
2021/12/13 12:01:43;;;;;;;23.52;12.63;;;10.20;99.90;;;;;;5080498;28;20385;-83
2021/12/13 12:04:47;;;;;;;22.88;13.05;;;10.20;99.90;;;;;;5073829;28;20421;-81
2021/12/13 12:07:31;;;;;;;22.50;12.77;;;10.30;99.90;;;;;;5053877;28;20396;-83
2021/12/13 12:10:21;;;;;;;24.25;13.13;;;10.30;99.90;;;;;;5085963;28;20376;-84
2021/12/13 12:12:49;;;;;;;22.40;12.32;;;10.30;99.90;;;;;;5068497;28;20380;-83
2021/12/13 12:15:16;;;;;;;23.20;12.32;;;10.40;99.90;;;;;;5069966;28;20356;-82
2021/12/13 12:17:43;;;;;;;23.95;13.07;;;10.40;99.90;;;;;;5091530;28;20909;-81
2021/12/13 12:20:14;;;;;;;23.15;12.77;;;10.40;99.90;;;;;;5073393;28;20372;-83
2021/12/13 12:22:56;;;;;;;21.93;12.27;;;10.40;99.90;;;;;;5072285;28;20457;-83
2021/12/13 12:25:25;;;;;;;22.80;13.45;;;10.40;99.90;;;;;;5068330;28;20747;-82
2021/12/13 12:28:01;;;;;;;20.77;12.38;;;10.40;99.90;;;;;;5090891;28;20384;-84
2021/12/13 12:30:34;;;;;;;23.25;12.88;;;10.50;99.90;;;;;;5069440;28;20747;-83
2021/12/13 12:33:06;;;;;;;23.05;13.55;;;10.50;99.90;;;;;;5090759;28;20437;-83
2021/12/13 12:35:36;;;;;;;27.80;16.05;;;10.50;99.90;;;;;;5073202;28;20467;-83
2021/12/13 12:38:20;;;;;;;33.78;17.15;;;10.50;99.90;;;;;;5091405;28;20381;-83
2021/12/13 12:41:11;;;;;;;38.20;17.30;;;10.50;99.90;;;;;;5071388;28;20387;-83
2021/12/13 12:43:51;;;;;;;35.72;18.20;;;10.60;99.90;;;;;;5072337;28;20478;-83
2021/12/13 12:46:18;;;;;;;37.90;19.20;;;10.60;99.90;;;;;;5073018;28;20384;-83
2021/12/13 12:48:47;;;;;;;38.77;19.43;;;10.70;99.90;;;;;;5072983;28;20893;-82
2021/12/13 12:51:19;;;;;;;36.33;19.33;;;10.60;99.90;;;;;;5072342;28;20433;-83
2021/12/13 12:53:45;;;;;;;35.03;18.07;;;10.60;99.90;;;;;;5071667;28;20403;-85
2021/12/13 12:56:17;;;;;;;39.97;19.10;;;10.60;99.90;;;;;;5090410;28;20447;-84
2021/12/13 12:58:49;;;;;;;41.23;19.53;;;10.60;99.90;;;;;;5071966;28;20380;-85
2021/12/13 13:01:20;;;;;;;38.33;20.38;;;10.60;99.90;;;;;;5072382;28;20388;-85
2021/12/13 13:03:46;;;;;;;38.67;21.00;;;10.80;99.90;;;;;;5055775;28;20404;-85
2021/12/13 13:06:30;;;;;;;41.53;21.40;;;10.80;99.90;;;;;;5090877;28;20380;-84
2021/12/13 13:08:56;;;;;;;53.03;23.85;;;10.70;99.90;;;;;;5058995;28;20446;-85
2021/12/13 13:11:27;;;;;;;45.47;22.95;;;10.70;99.90;;;;;;5067039;28;20469;-84
2021/12/13 13:14:10;;;;;;;49.30;23.33;;;10.70;99.90;;;;;;5069977;28;20849;-84
2021/12/13 13:16:46;;;;;;;39.45;22.20;;;10.70;99.90;;;;;;5086635;28;20784;-85
2021/12/13 13:19:25;;;;;;;49.47;24.02;;;10.70;99.90;;;;;;5085159;28;20795;-85
2021/12/13 13:21:52;;;;;;;49.38;24.85;;;10.70;99.90;;;;;;5067305;28;20455;-84
2021/12/13 13:24:19;;;;;;;56.60;25.67;;;10.70;99.90;;;;;;5067351;28;20839;-84